Time;durP1;ratioP1;P1;durP2;ratioP2;P2;SDS_P1;SDS_P2;PMS_P1;PMS_P2;Temp;Humidity;BMP_temperature;BMP_pressure;BME280_temperature;BME280_humidity;BME280_pressure;Samples;Min_cycle;Max_cycle;Signal;HPM_P1;HPM_P2
2022/06/22 00:00:23;;;;;;;4.60;3.55;;;;;;;23.70;43.82;101504.56;4977703;28;20084;-84
2022/06/22 00:02:52;;;;;;;4.30;3.72;;;;;;;23.54;44.02;101499.44;4976307;28;20042;-84
2022/06/22 00:05:22;;;;;;;3.67;3.20;;;;;;;23.64;43.65;101507.94;4981258;28;20037;-84
2022/06/22 00:07:57;;;;;;;4.05;3.45;;;;;;;23.57;43.93;101507.91;4982134;28;20034;-83
2022/06/22 00:10:22;;;;;;;3.85;3.40;;;;;;;23.64;43.88;101499.97;4979921;28;20044;-83
2022/06/22 00:12:51;;;;;;;5.95;3.58;;;;;;;23.65;43.62;101499.78;4982263;28;20034;-84
2022/06/22 00:15:22;;;;;;;3.95;3.50;;;;;;;23.60;44.06;101498.72;4983914;28;20037;-85
2022/06/22 00:17:48;;;;;;;5.15;3.67;;;;;;;23.59;43.93;101500.56;4979190;28;20039;-84
2022/06/22 00:20:23;;;;;;;4.47;3.70;;;;;;;23.53;43.87;101495.97;4982597;28;20026;-83
2022/06/22 00:22:53;;;;;;;4.75;3.40;;;;;;;23.63;43.93;101506.31;4980375;28;20041;-84
2022/06/22 00:25:26;;;;;;;3.95;3.55;;;;;;;23.48;43.80;101503.66;4981841;28;20069;-84
2022/06/22 00:27:52;;;;;;;3.63;3.28;;;;;;;23.51;44.04;101512.06;4975642;28;20477;-84
2022/06/22 00:30:31;;;;;;;15.35;4.68;;;;;;;23.54;44.10;101508.25;4977285;28;20049;-84
2022/06/22 00:33:11;;;;;;;5.55;3.47;;;;;;;23.60;43.84;101509.34;4977695;28;20171;-84
2022/06/22 00:36:03;;;;;;;5.88;3.88;;;;;;;23.60;43.81;101502.19;4982067;28;20042;-84
2022/06/22 00:38:31;;;;;;;3.97;3.40;;;;;;;23.51;43.85;101506.75;4954304;28;20055;-85
2022/06/22 00:41:02;;;;;;;3.97;3.58;;;;;;;23.57;43.80;101517.69;4987296;28;20034;-85
2022/06/22 00:43:32;;;;;;;5.13;3.70;;;;;;;23.51;43.77;101505.94;4986671;28;20033;-84
2022/06/22 00:46:00;;;;;;;5.13;3.60;;;;;;;23.45;43.88;101496.88;4983899;28;20791;-84
2022/06/22 00:48:39;;;;;;;4.18;3.53;;;;;;;23.43;43.94;101487.47;4987712;28;20045;-85
2022/06/22 00:51:24;;;;;;;4.85;3.63;;;;;;;23.38;43.93;101488.03;4980157;28;20043;-85
2022/06/22 00:53:55;;;;;;;4.50;3.97;;;;;;;23.46;44.08;101506.50;4985447;28;20477;-84
2022/06/22 00:56:36;;;;;;;4.57;3.70;;;;;;;23.51;43.78;101508.59;4984195;28;20034;-83
2022/06/22 00:59:24;;;;;;;3.75;3.30;;;;;;;23.45;44.10;101502.19;4979437;28;20035;-84
2022/06/22 01:02:03;;;;;;;4.18;3.30;;;;;;;23.55;43.69;101501.09;4985459;28;20702;-83
2022/06/22 01:04:44;;;;;;;5.45;3.92;;;;;;;23.57;43.77;101501.75;4984950;28;20117;-83
2022/06/22 01:07:18;;;;;;;4.20;3.80;;;;;;;23.49;43.86;101499.97;4976539;28;20766;-83
2022/06/22 01:10:01;;;;;;;4.65;3.83;;;;;;;23.45;43.81;101488.09;4979529;28;20034;-84
2022/06/22 01:12:30;;;;;;;4.40;3.60;;;;;;;23.39;43.93;101478.22;4990539;28;20456;-83
2022/06/22 01:15:09;;;;;;;4.25;3.30;;;;;;;23.49;43.75;101489.34;4984709;28;20042;-83
2022/06/22 01:17:47;;;;;;;4.10;3.55;;;;;;;23.40;44.02;101483.34;4979538;28;20709;-83
2022/06/22 01:20:31;;;;;;;3.90;3.40;;;;;;;23.41;43.79;101479.66;4975642;28;20046;-83
2022/06/22 01:22:56;;;;;;;4.90;3.63;;;;;;;23.46;43.67;101493.22;4979844;28;20100;-84
2022/06/22 01:25:50;;;;;;;4.28;3.50;;;;;;;23.51;43.80;101492.66;4982828;28;20038;-83
2022/06/22 01:28:16;;;;;;;3.92;3.42;;;;;;;23.52;43.68;101504.94;4982381;28;20078;-84
2022/06/22 01:30:48;;;;;;;4.05;3.20;;;;;;;23.51;43.64;101504.09;4980724;28;20046;-84
2022/06/22 01:33:52;;;;;;;4.15;3.60;;;;;;;23.51;43.45;101506.75;4982682;28;20121;-84
2022/06/22 01:36:26;;;;;;;5.22;3.72;;;;;;;23.43;43.84;101504.22;4980706;28;20124;-84
2022/06/22 01:38:52;;;;;;;4.70;3.55;;;;;;;23.45;43.75;101506.69;4982558;28;20050;-84
2022/06/22 01:41:27;;;;;;;4.30;3.90;;;;;;;23.43;43.82;101503.41;4986239;28;20523;-84
2022/06/22 01:44:03;;;;;;;4.63;3.70;;;;;;;23.37;43.76;101497.00;4986160;28;20124;-83
2022/06/22 01:46:34;;;;;;;4.20;3.63;;;;;;;23.42;43.63;101505.25;4966650;28;20044;-84
2022/06/22 01:49:08;;;;;;;4.88;3.60;;;;;;;23.46;43.52;101503.84;4980859;28;20104;-83
2022/06/22 01:51:44;;;;;;;3.80;3.30;;;;;;;23.54;43.41;101518.06;4985083;28;20046;-83
2022/06/22 01:54:22;;;;;;;4.35;3.33;;;;;;;23.44;43.76;101508.53;4983526;28;20042;-83
2022/06/22 01:57:10;;;;;;;4.90;3.60;;;;;;;23.35;43.63;101500.88;4982277;28;20066;-83
2022/06/22 02:00:06;;;;;;;4.18;3.40;;;;;;;23.40;43.91;101512.59;4981283;28;20053;-84
2022/06/22 02:02:54;;;;;;;4.35;3.53;;;;;;;23.41;43.74;101503.59;4985018;28;20136;-85
2022/06/22 02:05:29;;;;;;;4.85;3.60;;;;;;;23.48;43.76;101508.97;4980387;28;20034;-84
2022/06/22 02:08:01;;;;;;;4.40;3.50;;;;;;;23.47;43.45;101512.66;4984044;28;20473;-84
2022/06/22 02:10:48;;;;;;;3.60;3.10;;;;;;;23.47;43.62;101510.81;4982458;28;20038;-83
2022/06/22 02:13:14;;;;;;;3.97;3.58;;;;;;;23.38;43.79;101505.81;4982370;28;20113;-84
2022/06/22 02:15:39;;;;;;;4.55;3.78;;;;;;;23.37;43.86;101510.31;4985303;28;20117;-84
2022/06/22 02:18:19;;;;;;;3.92;3.53;;;;;;;23.44;43.80;101524.47;4982202;28;20132;-84
2022/06/22 02:20:44;;;;;;;;;;;;;;;23.42;43.65;101521.19;4981279;28;20679;-83
2022/06/22 02:23:23;;;;;;;4.05;3.33;;;;;;;23.42;43.50;101520.38;4981803;28;19921;-85
2022/06/22 02:26:10;;;;;;;3.95;3.45;;;;;;;23.36;43.55;101510.50;4994364;28;20168;-83
2022/06/22 02:28:35;;;;;;;4.60;3.70;;;;;;;23.36;43.92;101513.16;4991652;28;20131;-83
2022/06/22 02:31:01;;;;;;;3.80;3.40;;;;;;;23.35;43.69;101522.94;4981063;28;20147;-84
2022/06/22 02:33:28;;;;;;;3.92;3.38;;;;;;;23.38;43.71;101521.75;4987343;28;20049;-85
2022/06/22 02:35:55;;;;;;;4.43;3.47;;;;;;;23.37;43.79;101512.13;4984700;28;20096;-84
2022/06/22 02:38:21;;;;;;;4.43;3.50;;;;;;;23.31;43.56;101499.56;4983993;28;20038;-84
2022/06/22 02:46:22;;;;;;;3.53;3.22;;;;;;;23.38;43.47;101508.47;4979710;28;20386;-84
2022/06/22 02:48:54;;;;;;;4.40;3.63;;;;;;;23.29;43.64;101502.41;4986208;28;20044;-84
2022/06/22 02:51:28;;;;;;;4.00;3.30;;;;;;;23.28;43.72;101516.72;4983930;28;20124;-83
2022/06/22 02:53:57;;;;;;;4.28;3.50;;;;;;;23.33;43.48;101527.59;4983412;28;20030;-84
2022/06/22 02:56:31;;;;;;;3.92;3.53;;;;;;;23.38;43.64;101529.72;4983864;28;20078;-84
2022/06/22 02:58:56;;;;;;;4.32;3.40;;;;;;;23.36;43.30;101518.47;4980693;28;20034;-85
2022/06/22 03:01:27;;;;;;;3.72;3.30;;;;;;;23.33;43.54;101516.16;4997045;28;20436;-85
2022/06/22 03:04:02;;;;;;;3.75;3.20;;;;;;;23.40;43.39;101519.72;4982042;28;20049;-85
2022/06/22 03:06:31;;;;;;;3.40;3.00;;;;;;;23.37;43.55;101523.59;4981450;28;20088;-84
2022/06/22 03:09:00;;;;;;;3.75;2.97;;;;;;;23.32;43.46;101514.50;4982580;28;20038;-84
2022/06/22 03:11:26;;;;;;;4.60;3.45;;;;;;;23.33;43.59;101524.94;4991938;28;20046;-84
2022/06/22 03:13:57;;;;;;;4.82;3.30;;;;;;;23.34;43.79;101531.94;4983340;28;20057;-81
2022/06/22 03:16:31;;;;;;;3.67;3.22;;;;;;;23.29;43.75;101523.69;4981888;28;20046;-81
2022/06/22 03:19:01;;;;;;;4.28;3.40;;;;;;;23.32;43.58;101533.09;4982528;28;20408;-81
2022/06/22 03:21:27;;;;;;;3.72;3.35;;;;;;;23.29;43.70;101528.16;4982020;28;20146;-81
2022/06/22 03:24:09;;;;;;;3.83;3.25;;;;;;;23.26;43.53;101518.75;4978247;28;20153;-81
2022/06/22 03:26:51;;;;;;;4.88;3.40;;;;;;;23.28;43.48;101518.56;4982590;28;20128;-81
2022/06/22 03:29:26;;;;;;;4.30;3.45;;;;;;;23.33;43.50;101524.94;4980244;28;20038;-81
2022/06/22 03:31:59;;;;;;;4.20;3.20;;;;;;;23.37;43.18;101520.09;4982194;28;20042;-81
2022/06/22 03:34:55;;;;;;;4.03;3.40;;;;;;;23.24;43.30;101510.13;4977880;28;20514;-81
2022/06/22 03:37:27;;;;;;;3.75;3.30;;;;;;;23.21;43.37;101511.34;4970714;28;20074;-80
2022/06/22 03:40:01;;;;;;;3.50;3.20;;;;;;;23.27;43.54;101520.38;4979029;28;20046;-81
2022/06/22 03:42:33;;;;;;;3.97;3.10;;;;;;;23.27;43.25;101516.91;4982219;28;20541;-81
2022/06/22 03:45:09;;;;;;;3.80;3.35;;;;;;;23.39;43.19;101524.22;4979993;28;20077;-81
2022/06/22 03:47:39;;;;;;;4.47;3.67;;;;;;;23.29;43.67;101525.50;4980265;28;20038;-81
2022/06/22 03:50:14;;;;;;;3.55;3.22;;;;;;;23.21;43.46;101511.34;4983656;28;20038;-81
2022/06/22 03:52:48;;;;;;;3.20;2.90;;;;;;;23.25;43.47;101529.56;4993182;28;20113;-81
2022/06/22 03:55:18;;;;;;;3.95;3.38;;;;;;;23.30;43.36;101533.28;4979902;28;20085;-81
2022/06/22 03:57:51;;;;;;;3.88;3.47;;;;;;;23.29;43.28;101523.69;4983253;28;20046;-81
2022/06/22 04:00:19;;;;;;;3.85;3.10;;;;;;;23.28;43.35;101523.88;4983755;28;20038;-81
2022/06/22 04:02:45;;;;;;;4.05;3.65;;;;;;;23.31;43.53;101505.72;4985654;28;20054;-82
2022/06/22 04:05:17;;;;;;;3.53;3.22;;;;;;;23.26;43.45;101497.47;4990758;28;20473;-82
2022/06/22 04:07:43;;;;;;;3.83;3.13;;;;;;;23.11;43.42;101472.75;4980897;28;20062;-83
2022/06/22 04:10:33;;;;;;;3.90;3.45;;;;;;;23.26;43.63;101491.34;4980863;28;20137;-82
2022/06/22 04:13:03;;;;;;;3.53;3.22;;;;;;;23.28;43.36;101478.69;4985680;28;20030;-81
2022/06/22 04:15:29;;;;;;;4.07;3.40;;;;;;;23.27;43.45;101488.50;4981712;28;20044;-82
2022/06/22 04:18:07;;;;;;;3.88;3.42;;;;;;;23.28;43.34;101478.69;4984927;28;20038;-81
2022/06/22 04:20:50;;;;;;;4.63;3.53;;;;;;;23.14;43.42;101467.06;4981929;28;20100;-81
2022/06/22 04:23:21;;;;;;;3.63;3.33;;;;;;;23.30;43.37;101481.97;4980027;28;20469;-81
2022/06/22 04:25:48;;;;;;;3.72;3.25;;;;;;;23.20;43.23;101459.19;4987916;28;20540;-80
2022/06/22 04:28:15;;;;;;;3.78;3.17;;;;;;;23.28;43.27;101465.41;4983172;28;20058;-81
2022/06/22 04:30:49;;;;;;;3.90;3.42;;;;;;;23.24;43.23;101459.66;4983581;28;20056;-82
2022/06/22 04:33:23;;;;;;;3.78;3.38;;;;;;;23.24;43.32;101475.59;4982645;28;20038;-82
2022/06/22 04:36:00;;;;;;;3.70;3.40;;;;;;;23.25;43.37;101479.06;4981212;28;20061;-82
2022/06/22 04:38:33;;;;;;;3.05;2.75;;;;;;;23.26;43.42;101475.41;4983586;28;20804;-81
2022/06/22 04:41:27;;;;;;;3.60;3.30;;;;;;;23.21;43.35;101475.97;4997007;28;20120;-82
2022/06/22 04:43:58;;;;;;;3.67;3.38;;;;;;;23.20;43.23;101453.88;4981237;28;20062;-82
2022/06/22 04:46:36;;;;;;;4.10;3.40;;;;;;;23.25;43.46;101453.31;4985051;28;20734;-82
2022/06/22 04:49:08;;;;;;;4.18;3.55;;;;;;;23.19;43.39;101446.09;4984112;28;20042;-81
2022/06/22 04:51:37;;;;;;;3.55;3.25;;;;;;;23.16;43.14;101444.66;4981345;28;20128;-82
2022/06/22 04:54:02;;;;;;;3.88;3.20;;;;;;;23.25;43.32;101457.81;4983282;28;20034;-82
2022/06/22 04:56:35;;;;;;;3.75;3.35;;;;;;;23.25;43.25;101463.13;4981255;28;20061;-82
2022/06/22 04:59:02;;;;;;;4.10;3.47;;;;;;;23.26;43.23;101454.16;4982191;28;20065;-82
2022/06/22 05:01:40;;;;;;;3.88;3.38;;;;;;;23.23;43.39;101459.84;4983078;28;20128;-82
2022/06/22 05:04:16;;;;;;;3.67;3.30;;;;;;;23.30;43.07;101463.38;4993381;28;20387;-82
2022/06/22 05:07:03;;;;;;;3.78;3.30;;;;;;;23.32;43.12;101454.19;4983650;28;20034;-81
2022/06/22 05:09:48;;;;;;;3.42;3.03;;;;;;;23.27;43.58;101459.28;4982300;28;20027;-82
2022/06/22 05:12:20;;;;;;;3.67;3.35;;;;;;;23.34;43.15;101465.50;4985273;28;20038;-82
2022/06/22 05:14:48;;;;;;;3.05;2.75;;;;;;;23.31;43.06;101467.69;4981330;28;20774;-82
2022/06/22 05:17:26;;;;;;;3.28;2.97;;;;;;;23.34;43.05;101472.63;4980195;28;20061;-82
2022/06/22 05:19:57;;;;;;;3.30;3.00;;;;;;;23.33;43.15;101477.13;4979635;28;20126;-82
2022/06/22 05:22:23;;;;;;;4.00;3.08;;;;;;;23.31;43.13;101486.28;4984288;28;20089;-82
2022/06/22 05:24:55;;;;;;;3.65;3.15;;;;;;;23.22;43.41;101485.59;4985261;28;20038;-82
2022/06/22 05:27:26;;;;;;;3.38;3.00;;;;;;;23.26;43.13;101491.34;4982955;28;20088;-82
2022/06/22 05:30:18;;;;;;;3.85;3.25;;;;;;;23.38;43.08;101505.81;4986525;28;20045;-82
2022/06/22 05:32:59;;;;;;;3.72;3.00;;;;;;;23.37;43.28;101510.31;4975730;28;20088;-82
2022/06/22 05:35:46;;;;;;;3.28;2.97;;;;;;;23.35;43.18;101514.97;4984131;28;20101;-82
2022/06/22 05:38:15;;;;;;;3.25;2.95;;;;;;;23.34;42.95;101510.69;4981132;28;20042;-80
2022/06/22 05:40:44;;;;;;;3.83;2.92;;;;;;;23.36;43.03;101513.97;4983127;28;20038;-81
2022/06/22 05:43:09;;;;;;;3.28;2.97;;;;;;;23.37;42.91;101518.28;4985666;28;20038;-81
2022/06/22 05:45:54;;;;;;;3.40;3.10;;;;;;;23.39;43.14;101516.25;4983372;28;20354;-82
2022/06/22 05:48:24;;;;;;;3.53;3.10;;;;;;;23.27;43.29;101523.03;4981734;28;20042;-82
2022/06/22 05:51:01;;;;;;;3.75;3.30;;;;;;;23.25;43.30;101511.78;4982673;28;20078;-82
2022/06/22 05:53:37;;;;;;;3.10;2.80;;;;;;;23.20;43.52;101512.34;4984603;28;20443;-81
2022/06/22 05:56:26;;;;;;;3.20;2.90;;;;;;;23.30;43.20;101516.53;4981181;28;20477;-82
2022/06/22 05:59:16;;;;;;;3.63;3.05;;;;;;;23.25;43.31;101509.13;4977425;28;21123;-82
2022/06/22 06:02:09;;;;;;;3.08;2.78;;;;;;;23.30;43.30;101503.25;4980671;28;20062;-82
2022/06/22 06:04:41;;;;;;;3.38;2.75;;;;;;;23.21;43.31;101490.06;4982239;28;20796;-82
2022/06/22 06:07:14;;;;;;;3.60;3.30;;;;;;;23.24;43.48;101496.84;4993606;28;20610;-82
2022/06/22 06:09:40;;;;;;;4.15;3.40;;;;;;;23.28;43.26;101502.59;4978461;28;20087;-81
2022/06/22 06:12:33;;;;;;;4.35;3.30;;;;;;;23.25;43.36;101508.31;4984003;28;20077;-81
2022/06/22 06:15:02;;;;;;;3.67;3.17;;;;;;;23.31;43.61;101512.84;4989848;28;20082;-82
2022/06/22 06:17:30;;;;;;;4.07;3.15;;;;;;;23.39;43.27;101508.28;4981635;28;20038;-82
2022/06/22 06:19:58;;;;;;;3.60;2.60;;;;;;;23.27;43.50;101506.28;4980628;28;20034;-81
2022/06/22 06:22:25;;;;;;;3.30;3.00;;;;;;;23.30;43.20;101504.06;4981185;28;20030;-81
2022/06/22 06:27:48;;;;;;;3.38;2.90;;;;;;;23.35;43.48;101511.50;4978827;28;20137;-81
2022/06/22 06:30:29;;;;;;;4.75;3.15;;;;;;;23.27;43.51;101512.41;4983145;28;20121;-83
2022/06/22 06:33:18;;;;;;;3.75;2.60;;;;;;;23.23;43.32;101511.16;4982952;28;20057;-82
2022/06/22 06:35:48;;;;;;;3.40;3.00;;;;;;;23.38;43.43;101511.13;4979461;28;20595;-81
2022/06/22 06:38:23;;;;;;;;;;;;;;;23.38;43.14;101506.63;4980516;28;20120;-81
2022/06/22 06:40:56;;;;;;;3.10;2.80;;;;;;;23.33;43.26;101498.38;4983759;28;19928;-82
2022/06/22 06:43:47;;;;;;;2.88;2.58;;;;;;;23.42;43.39;101518.53;4980935;28;20034;-81
2022/06/22 06:46:38;;;;;;;3.08;2.78;;;;;;;23.43;43.05;101517.50;4958754;28;20096;-83
2022/06/22 06:49:26;;;;;;;3.20;2.90;;;;;;;23.44;42.98;101523.66;4983160;28;20065;-82
2022/06/22 06:51:56;;;;;;;2.97;2.67;;;;;;;23.40;43.35;101523.22;4981393;28;20038;-83
2022/06/22 06:54:27;;;;;;;;;;;;;;;23.44;43.20;101526.31;4988066;28;20053;-83
2022/06/22 06:57:04;;;;;;;3.05;2.80;;;;;;;23.45;43.20;101530.63;4984835;28;19957;-82
2022/06/22 06:59:31;;;;;;;3.90;3.13;;;;;;;23.49;43.17;101530.06;4982566;28;20472;-83
2022/06/22 07:02:05;;;;;;;3.05;2.75;;;;;;;23.52;43.26;101524.38;4984623;28;20383;-84
2022/06/22 07:04:34;;;;;;;4.32;2.90;;;;;;;23.54;43.27;101534.81;4982003;28;20677;-84
2022/06/22 07:07:28;;;;;;;3.00;2.60;;;;;;;23.53;42.92;101522.53;4984875;28;20034;-84
2022/06/22 07:09:58;;;;;;;2.70;2.50;;;;;;;23.55;42.95;101522.34;4981929;28;20026;-84
2022/06/22 07:12:33;;;;;;;3.97;3.03;;;;;;;23.58;43.13;101529.97;4982281;28;20030;-83
2022/06/22 07:15:03;;;;;;;3.67;2.92;;;;;;;23.57;43.41;101526.50;4963379;28;20078;-83
2022/06/22 07:17:29;;;;;;;;;;;;;;;23.59;43.25;101534.28;4981586;28;20047;-84
2022/06/22 07:19:59;;;;;;;3.40;3.10;;;;;;;23.54;43.41;101516.22;4978179;28;19922;-83
2022/06/22 07:22:36;;;;;;;3.10;2.65;;;;;;;23.63;43.41;101531.06;4982259;28;20048;-83
2022/06/22 07:25:11;;;;;;;3.42;2.80;;;;;;;23.63;43.33;101533.72;4982865;28;20134;-82
2022/06/22 07:27:44;;;;;;;4.10;2.70;;;;;;;23.66;43.12;101533.34;4981828;28;20137;-85
2022/06/22 07:30:39;;;;;;;3.30;2.88;;;;;;;23.72;43.21;101535.25;4983197;28;20040;-84
2022/06/22 07:33:29;;;;;;;3.88;2.67;;;;;;;23.76;43.18;101536.53;4973408;28;20042;-84
2022/06/22 07:35:59;;;;;;;;;;;;;;;23.72;43.30;101537.91;4984645;28;20034;-84
2022/06/22 07:38:40;;;;;;;3.83;2.95;;;;;;;23.72;43.14;101535.25;4980190;28;19921;-84
2022/06/22 07:41:19;;;;;;;3.50;3.10;;;;;;;23.74;43.18;101540.41;4983581;28;20065;-84
2022/06/22 07:43:48;;;;;;;3.50;3.20;;;;;;;23.76;43.41;101543.69;4983507;28;20125;-84
2022/06/22 07:46:23;;;;;;;3.17;2.88;;;;;;;23.75;43.16;101524.25;4984372;28;20125;-84
2022/06/22 07:48:54;;;;;;;4.43;3.00;;;;;;;23.79;43.20;101536.16;4983078;28;20092;-84
2022/06/22 07:51:27;;;;;;;3.67;3.25;;;;;;;23.76;43.30;101531.22;4996209;28;20081;-84
2022/06/22 07:54:34;;;;;;;4.10;3.10;;;;;;;23.81;43.24;101527.97;4984171;28;20037;-84
2022/06/22 07:57:20;;;;;;;3.13;2.83;;;;;;;23.74;43.13;101519.13;4918314;29;20040;-85
2022/06/22 08:00:06;;;;;;;4.05;3.25;;;;;;;23.83;43.17;101525.94;4922724;29;21175;-84
2022/06/22 08:03:21;;;;;;;4.10;3.08;;;;;;;23.88;43.02;101541.31;4965071;28;20053;-84
2022/06/22 08:05:50;;;;;;;5.43;3.47;;;;;;;23.85;43.15;101547.84;4978475;28;20670;-84
2022/06/22 08:08:35;;;;;;;4.00;3.15;;;;;;;23.81;43.16;101531.47;4986449;28;20677;-84
2022/06/22 08:11:22;;;;;;;5.72;3.20;;;;;;;23.89;43.13;101546.50;4981376;28;20043;-84
2022/06/22 08:13:52;;;;;;;6.15;3.65;;;;;;;23.90;43.13;101540.16;4984360;28;20038;-84
2022/06/22 08:16:25;;;;;;;;;;;;;;;23.95;42.86;101543.06;4986799;28;21767;-84
2022/06/22 08:18:50;;;;;;;4.70;3.40;;;;;;;23.96;42.75;101538.56;4982411;28;20336;-84
2022/06/22 08:21:18;;;;;;;4.97;3.40;;;;;;;24.00;42.78;101548.63;4987478;28;20082;-84
2022/06/22 08:23:44;;;;;;;4.68;3.17;;;;;;;23.94;43.01;101541.41;4985422;28;20049;-84
2022/06/22 08:26:37;;;;;;;4.35;3.30;;;;;;;23.96;43.03;101543.88;4986938;28;20042;-85
2022/06/22 08:29:02;;;;;;;4.63;3.17;;;;;;;24.00;43.02;101547.81;4985536;28;20209;-84
2022/06/22 08:31:35;;;;;;;5.22;3.50;;;;;;;23.98;43.04;101549.84;4987010;28;20043;-84
2022/06/22 08:34:05;;;;;;;3.83;3.10;;;;;;;23.97;43.11;101543.69;4993894;28;20034;-84
2022/06/22 08:36:41;;;;;;;4.53;3.00;;;;;;;24.00;43.07;101545.16;4989571;28;20038;-85
2022/06/22 08:39:16;;;;;;;4.63;3.20;;;;;;;23.95;42.82;101543.06;4985914;28;20105;-84
2022/06/22 08:41:52;;;;;;;4.50;3.10;;;;;;;24.01;43.05;101541.47;4986531;28;20216;-85
2022/06/22 08:44:36;;;;;;;4.85;3.00;;;;;;;24.04;42.89;101538.41;4987342;28;20037;-85
2022/06/22 08:47:13;;;;;;;4.95;3.42;;;;;;;23.98;43.15;101540.00;4989358;28;20648;-84
2022/06/22 08:50:13;;;;;;;5.13;3.20;;;;;;;24.00;42.97;101545.97;5006952;28;20057;-84
2022/06/22 08:53:07;;;;;;;4.68;3.13;;;;;;;24.00;43.14;101537.16;4985895;28;20116;-86
2022/06/22 08:55:49;;;;;;;5.45;3.03;;;;;;;24.03;43.00;101529.63;4988852;28;20084;-85
2022/06/22 08:58:53;;;;;;;4.90;3.45;;;;;;;24.01;43.01;101530.81;4991146;28;20136;-85
2022/06/22 09:01:43;;;;;;;4.85;3.05;;;;;;;24.05;42.83;101537.41;4981083;28;20468;-84
2022/06/22 09:04:12;;;;;;;4.28;2.90;;;;;;;24.03;42.97;101534.13;4988037;28;20038;-84
2022/06/22 09:06:37;;;;;;;3.50;3.00;;;;;;;24.07;42.97;101533.56;4991369;28;20040;-83
2022/06/22 09:09:12;;;;;;;7.07;3.33;;;;;;;24.08;42.45;101532.56;4983769;28;20500;-84
2022/06/22 09:12:01;;;;;;;6.47;3.33;;;;;;;24.07;42.28;101530.91;4988337;28;20042;-83
2022/06/22 09:14:55;;;;;;;9.23;4.72;;;;;;;23.88;42.47;101541.31;4982470;28;20253;-82
2022/06/22 09:17:33;;;;;;;11.65;5.07;;;;;;;23.58;42.96;101543.28;4983129;28;20088;-81
2022/06/22 09:20:09;;;;;;;10.45;5.00;;;;;;;23.59;43.18;101535.13;4983213;28;20091;-81
2022/06/22 09:22:53;;;;;;;5.95;3.85;;;;;;;23.86;42.51;101549.50;4979206;28;20636;-82
2022/06/22 09:25:26;;;;;;;5.95;4.43;;;;;;;23.89;42.48;101546.50;4977656;28;20089;-82
2022/06/22 09:28:03;;;;;;;7.30;4.38;;;;;;;23.90;42.63;101542.81;4991621;28;20137;-83
2022/06/22 09:31:00;;;;;;;7.05;3.55;;;;;;;23.99;42.39;101551.47;4980452;28;20495;-82
2022/06/22 09:33:46;;;;;;;5.70;3.65;;;;;;;23.93;42.54;101553.06;4970105;28;20275;-82
2022/06/22 09:36:39;;;;;;;8.15;4.38;;;;;;;23.95;42.45;101559.03;4983774;28;20033;-82
2022/06/22 09:39:19;;;;;;;6.70;3.50;;;;;;;23.93;42.19;101553.06;4982768;28;20120;-81
2022/06/22 09:41:54;;;;;;;7.13;4.30;;;;;;;23.92;42.04;101554.09;4983267;28;20038;-83
2022/06/22 09:44:47;;;;;;;6.95;3.47;;;;;;;23.81;42.30;101558.06;4965827;28;20054;-84
2022/06/22 09:47:23;;;;;;;7.55;3.70;;;;;;;23.97;42.05;101545.53;4981509;28;20038;-82
2022/06/22 09:50:14;;;;;;;10.68;4.00;;;;;;;24.03;42.17;101558.06;4979897;28;20069;-83
2022/06/22 09:53:04;;;;;;;7.70;4.10;;;;;;;24.03;42.06;101550.06;4952480;28;20857;-83
2022/06/22 09:58:41;;;;;;;6.75;3.92;;;;;;;23.88;42.47;101568.78;4981094;28;20372;-81
2022/06/22 10:01:44;;;;;;;5.53;3.83;;;;;;;23.98;42.20;101555.97;4982597;28;20038;-81
2022/06/22 10:04:30;;;;;;;6.03;3.65;;;;;;;23.88;42.31;101555.47;4977609;28;20050;-82
2022/06/22 10:07:14;;;;;;;6.05;3.83;;;;;;;23.92;42.33;101555.91;4981331;28;20022;-82
2022/06/22 10:09:45;;;;;;;6.95;4.00;;;;;;;23.87;42.51;101560.97;4982470;28;20040;-82
2022/06/22 10:12:26;;;;;;;7.90;3.83;;;;;;;23.81;42.57;101552.72;4983436;28;20130;-82
2022/06/22 10:15:19;;;;;;;5.95;3.40;;;;;;;23.89;42.39;101532.38;4981346;28;21861;-81
2022/06/22 10:18:00;;;;;;;5.88;4.00;;;;;;;23.95;42.57;101544.91;4982101;28;20096;-82
2022/06/22 10:20:42;;;;;;;7.68;3.67;;;;;;;23.89;42.53;101541.16;4979324;28;20041;-82
2022/06/22 10:23:33;;;;;;;7.88;3.60;;;;;;;23.86;42.81;101544.19;4981967;28;20053;-83
2022/06/22 10:26:24;;;;;;;5.30;3.75;;;;;;;23.78;42.84;101547.78;4979546;28;20049;-82
2022/06/22 10:29:14;;;;;;;6.63;4.03;;;;;;;23.89;42.85;101543.81;4977569;28;20133;-83
2022/06/22 10:32:23;;;;;;;6.63;3.67;;;;;;;23.70;43.02;101531.16;4982327;28;20401;-83
2022/06/22 10:35:11;;;;;;;7.10;4.30;;;;;;;23.79;42.85;101537.97;4981236;28;20532;-83
2022/06/22 10:37:48;;;;;;;6.13;4.05;;;;;;;23.94;42.42;101532.63;4991620;28;20465;-83
2022/06/22 10:46:44;;;;;;;5.60;3.92;;;;;;;23.81;42.69;101533.28;4982492;28;20072;-83
2022/06/22 10:49:31;;;;;;;8.10;4.38;;;;;;;23.75;43.19;101536.72;4982430;28;20038;-82
2022/06/22 10:52:35;;;;;;;14.07;4.45;;;;;;;23.69;43.13;101535.63;4978574;28;20042;-81
2022/06/22 10:55:11;;;;;;;5.50;3.55;;;;;;;23.85;42.92;101541.72;4977705;28;20475;-82
2022/06/22 10:57:52;;;;;;;4.85;3.40;;;;;;;23.98;42.65;101534.69;4976535;28;20043;-82
2022/06/22 11:00:42;;;;;;;6.70;3.50;;;;;;;23.93;42.84;101534.44;4982323;28;20369;-82
2022/06/22 11:03:28;;;;;;;4.05;3.65;;;;;;;23.87;43.00;101523.72;4982148;28;20054;-82
2022/06/22 11:06:24;;;;;;;4.88;3.70;;;;;;;23.95;42.80;101531.59;4951345;28;20078;-82
2022/06/22 11:09:05;;;;;;;5.57;3.45;;;;;;;23.94;42.97;101533.44;4959230;28;20041;-82
2022/06/22 11:11:41;;;;;;;5.63;3.35;;;;;;;23.93;42.66;101530.97;4978160;28;21010;-82
2022/06/22 11:14:29;;;;;;;6.93;4.38;;;;;;;24.00;42.76;101529.19;4980557;28;20943;-82
2022/06/22 11:17:13;;;;;;;4.82;3.55;;;;;;;23.92;42.91;101529.31;4991789;28;20042;-82
2022/06/22 11:20:16;;;;;;;6.40;3.75;;;;;;;23.97;42.74;101524.25;4980799;28;20048;-82
2022/06/22 11:22:46;;;;;;;7.35;4.22;;;;;;;23.95;42.97;101527.09;4978255;28;20088;-83
2022/06/22 11:32:01;;;;;;;5.82;4.32;;;;;;;23.96;42.86;101506.63;4977765;28;20041;-81
2022/06/22 11:34:41;;;;;;;5.20;3.70;;;;;;;23.99;43.00;101503.59;4982334;28;20053;-82
2022/06/22 11:37:31;;;;;;;5.40;3.42;;;;;;;24.00;42.80;101502.56;4987125;28;20038;-82
2022/06/22 11:40:07;;;;;;;4.00;3.50;;;;;;;24.00;42.90;101499.91;4983386;28;20104;-81
2022/06/22 11:43:10;;;;;;;4.10;3.67;;;;;;;23.94;43.17;101506.00;4977856;28;20045;-80
2022/06/22 11:46:07;;;;;;;7.82;4.30;;;;;;;23.95;42.95;101505.81;4980642;28;20042;-80
2022/06/22 11:48:56;;;;;;;5.72;4.18;;;;;;;24.02;43.01;101500.53;4960445;28;20055;-80
2022/06/22 11:51:57;;;;;;;4.20;3.80;;;;;;;23.93;42.91;101491.88;4980497;28;20065;-80
2022/06/22 11:54:25;;;;;;;4.93;3.40;;;;;;;24.03;42.89;101508.34;4984464;28;20089;-81
2022/06/22 11:56:54;;;;;;;4.65;3.67;;;;;;;24.01;42.91;101497.06;4977375;28;20042;-80
2022/06/22 11:59:44;;;;;;;5.25;3.40;;;;;;;23.98;42.91;101501.94;4985448;28;20108;-80
2022/06/22 12:03:12;;;;;;;6.03;3.42;;;;;;;23.96;43.36;101496.00;4983296;28;20077;-80
2022/06/22 12:05:38;;;;;;;5.07;3.65;;;;;;;23.99;43.07;101485.78;4941206;28;20090;-80
2022/06/22 12:08:34;;;;;;;5.72;3.60;;;;;;;24.01;43.04;101480.28;4941761;28;20035;-80
2022/06/22 12:11:21;;;;;;;4.55;3.25;;;;;;;24.00;43.12;101483.97;4968616;28;20054;-80
2022/06/22 12:17:12;;;;;;;6.80;3.90;;;;;;;23.96;43.07;101461.41;4976980;28;20137;-80
2022/06/22 12:20:05;;;;;;;6.57;3.80;;;;;;;23.94;42.87;101452.81;4979222;28;20035;-80
2022/06/22 12:23:09;;;;;;;6.50;3.60;;;;;;;24.02;43.01;101464.13;4978468;28;20034;-80
2022/06/22 12:25:50;;;;;;;4.10;3.55;;;;;;;24.05;43.01;101469.06;4917632;29;20094;-80
2022/06/22 12:28:38;;;;;;;5.00;3.50;;;;;;;24.01;43.04;101475.78;4974334;28;20050;-80
2022/06/22 12:31:17;;;;;;;5.38;3.70;;;;;;;23.99;43.04;101466.34;4984166;28;20041;-80
2022/06/22 12:34:25;;;;;;;6.20;3.50;;;;;;;24.05;42.98;101468.22;4982662;28;20813;-80
2022/06/22 12:36:56;;;;;;;6.63;3.70;;;;;;;24.08;42.70;101468.69;4985181;28;20061;-80
2022/06/22 12:39:34;;;;;;;7.68;3.67;;;;;;;24.04;42.91;101459.44;4983046;28;20448;-80
2022/06/22 12:42:03;;;;;;;4.20;3.50;;;;;;;24.02;43.19;101460.63;4985126;28;20116;-80
2022/06/22 12:44:50;;;;;;;4.60;3.63;;;;;;;24.02;43.03;101461.47;4984045;28;20073;-80